sensor_id;sensor_type;location;lat;lon;timestamp;pressure;altitude;pressure_sealevel;temperature;humidity
63281;BME280;49406;51.044;3.766;2022-09-21T00:00:18;102747.57;;;8.08;100.00
63281;BME280;49406;51.044;3.766;2022-09-21T00:02:56;102749.42;;;8.14;100.00
63281;BME280;49406;51.044;3.766;2022-09-21T00:05:31;102743.41;;;8.12;100.00
63281;BME280;49406;51.044;3.766;2022-09-21T00:08:08;102744.49;;;8.05;100.00
63281;BME280;49406;51.044;3.766;2022-09-21T00:10:49;102748.64;;;7.94;100.00
63281;BME280;49406;51.044;3.766;2022-09-21T00:13:24;102747.96;;;8.02;100.00
63281;BME280;49406;51.044;3.766;2022-09-21T00:16:01;102747.17;;;8.04;100.00
63281;BME280;49406;51.044;3.766;2022-09-21T00:18:38;102746.13;;;8.03;100.00
63281;BME280;49406;51.044;3.766;2022-09-21T00:21:14;102747.35;;;7.89;100.00
63281;BME280;49406;51.044;3.766;2022-09-21T00:23:49;102750.15;;;7.87;100.00
63281;BME280;49406;51.044;3.766;2022-09-21T00:26:25;102746.54;;;7.91;100.00
63281;BME280;49406;51.044;3.766;2022-09-21T00:29:02;102747.11;;;7.92;100.00
63281;BME280;49406;51.044;3.766;2022-09-21T00:31:37;102745.80;;;7.93;100.00
63281;BME280;49406;51.044;3.766;2022-09-21T00:34:11;102741.55;;;7.85;100.00
63281;BME280;49406;51.044;3.766;2022-09-21T00:36:46;102747.40;;;7.90;100.00
63281;BME280;49406;51.044;3.766;2022-09-21T00:39:21;102747.88;;;7.96;100.00
63281;BME280;49406;51.044;3.766;2022-09-21T00:41:56;102749.95;;;8.00;100.00
63281;BME280;49406;51.044;3.766;2022-09-21T00:44:32;102750.45;;;7.89;100.00
63281;BME280;49406;51.044;3.766;2022-09-21T00:47:11;102750.48;;;7.93;100.00
63281;BME280;49406;51.044;3.766;2022-09-21T00:49:49;102744.58;;;7.97;100.00
63281;BME280;49406;51.044;3.766;2022-09-21T00:52:28;102742.08;;;7.95;100.00
63281;BME280;49406;51.044;3.766;2022-09-21T00:55:07;102743.38;;;7.83;100.00
63281;BME280;49406;51.044;3.766;2022-09-21T00:57:44;102740.30;;;7.81;100.00
63281;BME280;49406;51.044;3.766;2022-09-21T01:00:20;102741.83;;;7.83;100.00
63281;BME280;49406;51.044;3.766;2022-09-21T01:02:55;102740.48;;;7.84;100.00
63281;BME280;49406;51.044;3.766;2022-09-21T01:05:33;102741.75;;;7.82;100.00
63281;BME280;49406;51.044;3.766;2022-09-21T01:08:10;102738.84;;;7.65;100.00
63281;BME280;49406;51.044;3.766;2022-09-21T01:10:58;102743.41;;;7.73;100.00
63281;BME280;49406;51.044;3.766;2022-09-21T01:13:45;102740.64;;;7.77;100.00
63281;BME280;49406;51.044;3.766;2022-09-21T01:16:25;102742.58;;;7.70;100.00
63281;BME280;49406;51.044;3.766;2022-09-21T01:19:14;102740.30;;;7.53;100.00
63281;BME280;49406;51.044;3.766;2022-09-21T01:22:00;102740.35;;;7.57;100.00
63281;BME280;49406;51.044;3.766;2022-09-21T01:24:59;102736.66;;;7.57;100.00
63281;BME280;49406;51.044;3.766;2022-09-21T01:27:47;102735.68;;;7.55;100.00
63281;BME280;49406;51.044;3.766;2022-09-21T01:30:26;102734.81;;;7.38;100.00
63281;BME280;49406;51.044;3.766;2022-09-21T01:33:05;102735.42;;;7.39;100.00
63281;BME280;49406;51.044;3.766;2022-09-21T01:35:47;102732.79;;;7.42;100.00
63281;BME280;49406;51.044;3.766;2022-09-21T01:38:25;102732.34;;;7.40;100.00
63281;BME280;49406;51.044;3.766;2022-09-21T01:41:04;102732.20;;;7.31;100.00
63281;BME280;49406;51.044;3.766;2022-09-21T01:43:44;102734.54;;;7.22;100.00
63281;BME280;49406;51.044;3.766;2022-09-21T01:46:21;102732.52;;;7.30;100.00
63281;BME280;49406;51.044;3.766;2022-09-21T01:49:03;102735.30;;;7.30;100.00
63281;BME280;49406;51.044;3.766;2022-09-21T01:51:44;102733.95;;;7.25;100.00
63281;BME280;49406;51.044;3.766;2022-09-21T01:54:23;102736.86;;;7.10;100.00
63281;BME280;49406;51.044;3.766;2022-09-21T01:57:04;102737.59;;;7.14;100.00
63281;BME280;49406;51.044;3.766;2022-09-21T01:59:45;102735.13;;;7.10;100.00
63281;BME280;49406;51.044;3.766;2022-09-21T02:02:27;102733.75;;;7.07;100.00
63281;BME280;49406;51.044;3.766;2022-09-21T02:05:06;102733.23;;;7.01;100.00
63281;BME280;49406;51.044;3.766;2022-09-21T02:07:40;102731.98;;;6.87;100.00
63281;BME280;49406;51.044;3.766;2022-09-21T02:10:21;102731.12;;;6.93;100.00
63281;BME280;49406;51.044;3.766;2022-09-21T02:12:59;102730.90;;;6.96;100.00
63281;BME280;49406;51.044;3.766;2022-09-21T02:15:42;102732.00;;;6.93;100.00
63281;BME280;49406;51.044;3.766;2022-09-21T02:18:24;102730.67;;;6.82;100.00
63281;BME280;49406;51.044;3.766;2022-09-21T02:21:10;102730.59;;;6.87;100.00
63281;BME280;49406;51.044;3.766;2022-09-21T02:23:55;102728.23;;;6.91;100.00
63281;BME280;49406;51.044;3.766;2022-09-21T02:26:34;102727.52;;;6.88;100.00
63281;BME280;49406;51.044;3.766;2022-09-21T02:29:16;102725.69;;;6.73;100.00
63281;BME280;49406;51.044;3.766;2022-09-21T02:31:57;102729.94;;;6.81;100.00
63281;BME280;49406;51.044;3.766;2022-09-21T02:34:42;102734.11;;;6.85;100.00
63281;BME280;49406;51.044;3.766;2022-09-21T02:37:22;102730.56;;;6.83;100.00
63281;BME280;49406;51.044;3.766;2022-09-21T02:40:05;102723.64;;;6.71;100.00
63281;BME280;49406;51.044;3.766;2022-09-21T02:42:43;102726.09;;;6.78;100.00
63281;BME280;49406;51.044;3.766;2022-09-21T02:45:21;102726.20;;;6.76;100.00
63281;BME280;49406;51.044;3.766;2022-09-21T02:48:02;102723.17;;;6.68;100.00
63281;BME280;49406;51.044;3.766;2022-09-21T02:50:43;102730.52;;;6.54;100.00
63281;BME280;49406;51.044;3.766;2022-09-21T02:53:20;102729.66;;;6.60;100.00
63281;BME280;49406;51.044;3.766;2022-09-21T02:55:56;102729.91;;;6.61;100.00
63281;BME280;49406;51.044;3.766;2022-09-21T02:58:33;102731.16;;;6.62;100.00
63281;BME280;49406;51.044;3.766;2022-09-21T03:01:10;102731.46;;;6.49;100.00
63281;BME280;49406;51.044;3.766;2022-09-21T03:03:46;102726.70;;;6.48;100.00
63281;BME280;49406;51.044;3.766;2022-09-21T03:06:21;102729.11;;;6.54;100.00
63281;BME280;49406;51.044;3.766;2022-09-21T03:08:55;102734.67;;;6.56;100.00
63281;BME280;49406;51.044;3.766;2022-09-21T03:11:30;102732.84;;;6.52;100.00
63281;BME280;49406;51.044;3.766;2022-09-21T03:14:05;102736.23;;;6.41;100.00
63281;BME280;49406;51.044;3.766;2022-09-21T03:16:40;102738.27;;;6.50;100.00
63281;BME280;49406;51.044;3.766;2022-09-21T03:19:15;102738.30;;;6.53;100.00
63281;BME280;49406;51.044;3.766;2022-09-21T03:21:49;102740.98;;;6.54;100.00
63281;BME280;49406;51.044;3.766;2022-09-21T03:24:24;102740.08;;;6.48;100.00
63281;BME280;49406;51.044;3.766;2022-09-21T03:27:17;102740.06;;;6.44;100.00
63281;BME280;49406;51.044;3.766;2022-09-21T03:29:52;102738.20;;;6.54;100.00
63281;BME280;49406;51.044;3.766;2022-09-21T03:32:26;102734.05;;;6.58;100.00
63281;BME280;49406;51.044;3.766;2022-09-21T03:35:00;102734.56;;;6.58;100.00
63281;BME280;49406;51.044;3.766;2022-09-21T03:37:36;102740.23;;;6.50;100.00
63281;BME280;49406;51.044;3.766;2022-09-21T03:40:11;102741.16;;;6.60;100.00
63281;BME280;49406;51.044;3.766;2022-09-21T03:42:46;102745.01;;;6.68;100.00
63281;BME280;49406;51.044;3.766;2022-09-21T03:45:21;102744.30;;;6.67;100.00
63281;BME280;49406;51.044;3.766;2022-09-21T03:47:57;102749.61;;;6.56;100.00
63281;BME280;49406;51.044;3.766;2022-09-21T03:50:32;102750.59;;;6.65;100.00
63281;BME280;49406;51.044;3.766;2022-09-21T03:53:06;102749.19;;;6.68;100.00
63281;BME280;49406;51.044;3.766;2022-09-21T03:55:42;102742.17;;;6.70;100.00
63281;BME280;49406;51.044;3.766;2022-09-21T03:58:16;102743.95;;;6.70;100.00
63281;BME280;49406;51.044;3.766;2022-09-21T04:00:51;102740.65;;;6.61;100.00
63281;BME280;49406;51.044;3.766;2022-09-21T04:03:26;102742.55;;;6.67;100.00
63281;BME280;49406;51.044;3.766;2022-09-21T04:06:00;102739.63;;;6.71;100.00
63281;BME280;49406;51.044;3.766;2022-09-21T04:08:41;102738.94;;;6.71;100.00
63281;BME280;49406;51.044;3.766;2022-09-21T04:11:17;102738.05;;;6.64;100.00
63281;BME280;49406;51.044;3.766;2022-09-21T04:13:52;102735.58;;;6.57;100.00
63281;BME280;49406;51.044;3.766;2022-09-21T04:16:28;102736.77;;;6.63;100.00
63281;BME280;49406;51.044;3.766;2022-09-21T04:19:03;102738.72;;;6.64;100.00
63281;BME280;49406;51.044;3.766;2022-09-21T04:21:37;102730.14;;;6.62;100.00
63281;BME280;49406;51.044;3.766;2022-09-21T04:24:12;102730.36;;;6.57;100.00
63281;BME280;49406;51.044;3.766;2022-09-21T04:26:51;102735.62;;;6.45;100.00
63281;BME280;49406;51.044;3.766;2022-09-21T04:29:26;102735.03;;;6.51;100.00
63281;BME280;49406;51.044;3.766;2022-09-21T04:32:00;102738.38;;;6.51;100.00
63281;BME280;49406;51.044;3.766;2022-09-21T04:34:35;102738.81;;;6.47;100.00
63281;BME280;49406;51.044;3.766;2022-09-21T04:37:11;102740.81;;;6.32;100.00
63281;BME280;49406;51.044;3.766;2022-09-21T04:39:46;102736.64;;;6.39;100.00
63281;BME280;49406;51.044;3.766;2022-09-21T04:42:20;102738.91;;;6.42;100.00
63281;BME280;49406;51.044;3.766;2022-09-21T04:44:56;102735.30;;;6.43;100.00
63281;BME280;49406;51.044;3.766;2022-09-21T04:47:31;102734.59;;;6.36;100.00
63281;BME280;49406;51.044;3.766;2022-09-21T04:50:08;102746.35;;;6.28;100.00
63281;BME280;49406;51.044;3.766;2022-09-21T04:52:42;102747.54;;;6.38;100.00
63281;BME280;49406;51.044;3.766;2022-09-21T04:55:17;102749.23;;;6.38;100.00
63281;BME280;49406;51.044;3.766;2022-09-21T04:57:52;102754.02;;;6.32;100.00
63281;BME280;49406;51.044;3.766;2022-09-21T05:00:26;102756.87;;;6.21;100.00
63281;BME280;49406;51.044;3.766;2022-09-21T05:03:01;102750.11;;;6.31;100.00
63281;BME280;49406;51.044;3.766;2022-09-21T05:05:35;102747.90;;;6.35;100.00
63281;BME280;49406;51.044;3.766;2022-09-21T05:08:10;102748.63;;;6.39;100.00
63281;BME280;49406;51.044;3.766;2022-09-21T05:10:44;102747.30;;;6.40;100.00
63281;BME280;49406;51.044;3.766;2022-09-21T05:13:19;102749.94;;;6.24;100.00
63281;BME280;49406;51.044;3.766;2022-09-21T05:15:53;102755.27;;;6.27;100.00
63281;BME280;49406;51.044;3.766;2022-09-21T05:18:28;102758.55;;;6.32;100.00
63281;BME280;49406;51.044;3.766;2022-09-21T05:21:03;102757.14;;;6.36;100.00
63281;BME280;49406;51.044;3.766;2022-09-21T05:23:38;102752.77;;;6.26;100.00
63281;BME280;49406;51.044;3.766;2022-09-21T05:26:12;102750.02;;;6.20;100.00
63281;BME280;49406;51.044;3.766;2022-09-21T05:28:48;102752.67;;;6.27;100.00
63281;BME280;49406;51.044;3.766;2022-09-21T05:31:34;102754.21;;;6.30;100.00
63281;BME280;49406;51.044;3.766;2022-09-21T05:34:35;102755.30;;;6.21;100.00
63281;BME280;49406;51.044;3.766;2022-09-21T05:40:12;102755.39;;;6.29;100.00
63281;BME280;49406;51.044;3.766;2022-09-21T05:42:48;102759.34;;;6.35;100.00
63281;BME280;49406;51.044;3.766;2022-09-21T05:45:23;102752.67;;;6.39;100.00
63281;BME280;49406;51.044;3.766;2022-09-21T05:48:05;102753.50;;;6.32;100.00
63281;BME280;49406;51.044;3.766;2022-09-21T05:50:52;102755.55;;;6.35;100.00
63281;BME280;49406;51.044;3.766;2022-09-21T05:53:43;102758.09;;;6.53;100.00
63281;BME280;49406;51.044;3.766;2022-09-21T05:56:35;102759.78;;;6.64;100.00
63281;BME280;49406;51.044;3.766;2022-09-21T05:59:29;102761.53;;;6.77;100.00
63281;BME280;49406;51.044;3.766;2022-09-21T06:02:14;102760.22;;;6.85;100.00
63281;BME280;49406;51.044;3.766;2022-09-21T06:04:52;102761.08;;;7.01;100.00
63281;BME280;49406;51.044;3.766;2022-09-21T06:07:29;102760.27;;;7.09;100.00
63281;BME280;49406;51.044;3.766;2022-09-21T06:10:04;102760.70;;;7.07;100.00
63281;BME280;49406;51.044;3.766;2022-09-21T06:12:38;102759.77;;;7.15;100.00
63281;BME280;49406;51.044;3.766;2022-09-21T06:15:14;102765.94;;;7.40;100.00
63281;BME280;49406;51.044;3.766;2022-09-21T06:17:49;102765.98;;;7.58;100.00
63281;BME280;49406;51.044;3.766;2022-09-21T06:20:23;102765.29;;;7.72;100.00
63281;BME280;49406;51.044;3.766;2022-09-21T06:23:01;102769.98;;;7.96;100.00
63281;BME280;49406;51.044;3.766;2022-09-21T06:25:36;102770.84;;;8.35;100.00
63281;BME280;49406;51.044;3.766;2022-09-21T06:28:12;102768.32;;;8.73;100.00
63281;BME280;49406;51.044;3.766;2022-09-21T06:30:51;102770.10;;;8.89;100.00
63281;BME280;49406;51.044;3.766;2022-09-21T06:33:25;102772.41;;;9.09;100.00
63281;BME280;49406;51.044;3.766;2022-09-21T06:36:00;102771.75;;;9.30;100.00
63281;BME280;49406;51.044;3.766;2022-09-21T06:38:35;102773.40;;;9.48;100.00
63281;BME280;49406;51.044;3.766;2022-09-21T06:41:09;102771.55;;;9.65;100.00
63281;BME280;49406;51.044;3.766;2022-09-21T06:43:43;102774.20;;;9.91;100.00
63281;BME280;49406;51.044;3.766;2022-09-21T06:46:18;102776.25;;;10.19;100.00
63281;BME280;49406;51.044;3.766;2022-09-21T06:48:52;102780.77;;;10.35;100.00
63281;BME280;49406;51.044;3.766;2022-09-21T06:51:27;102782.81;;;10.47;100.00
63281;BME280;49406;51.044;3.766;2022-09-21T06:54:01;102780.80;;;10.58;100.00
63281;BME280;49406;51.044;3.766;2022-09-21T06:56:36;102781.27;;;10.70;100.00
63281;BME280;49406;51.044;3.766;2022-09-21T06:59:10;102773.79;;;10.85;100.00
63281;BME280;49406;51.044;3.766;2022-09-21T07:01:45;102775.23;;;11.10;100.00
63281;BME280;49406;51.044;3.766;2022-09-21T07:04:19;102774.17;;;11.38;100.00
63281;BME280;49406;51.044;3.766;2022-09-21T07:06:56;102773.39;;;11.70;100.00
63281;BME280;49406;51.044;3.766;2022-09-21T07:09:31;102775.58;;;11.99;100.00
63281;BME280;49406;51.044;3.766;2022-09-21T07:12:05;102774.34;;;12.25;99.98
63281;BME280;49406;51.044;3.766;2022-09-21T07:14:40;102772.60;;;12.42;99.86
63281;BME280;49406;51.044;3.766;2022-09-21T07:17:18;102778.28;;;12.61;99.80
63281;BME280;49406;51.044;3.766;2022-09-21T07:19:52;102778.98;;;12.90;98.71
63281;BME280;49406;51.044;3.766;2022-09-21T07:22:28;102782.31;;;13.08;97.85
63281;BME280;49406;51.044;3.766;2022-09-21T07:25:03;102782.11;;;13.31;97.65
63281;BME280;49406;51.044;3.766;2022-09-21T07:27:38;102780.20;;;13.57;96.55
63281;BME280;49406;51.044;3.766;2022-09-21T07:30:13;102784.48;;;13.80;94.95
63281;BME280;49406;51.044;3.766;2022-09-21T07:32:47;102784.71;;;14.02;93.88
63281;BME280;49406;51.044;3.766;2022-09-21T07:35:22;102784.48;;;14.30;92.93
63281;BME280;49406;51.044;3.766;2022-09-21T07:37:57;102783.60;;;14.57;91.06
63281;BME280;49406;51.044;3.766;2022-09-21T07:40:34;102776.61;;;14.84;90.55
63281;BME280;49406;51.044;3.766;2022-09-21T07:43:08;102778.10;;;14.96;88.31
63281;BME280;49406;51.044;3.766;2022-09-21T07:45:45;102779.23;;;15.18;89.56
63281;BME280;49406;51.044;3.766;2022-09-21T07:48:25;102779.73;;;15.52;86.94
63281;BME280;49406;51.044;3.766;2022-09-21T07:51:02;102777.45;;;15.70;85.64
63281;BME280;49406;51.044;3.766;2022-09-21T07:53:39;102776.99;;;15.84;83.88
63281;BME280;49406;51.044;3.766;2022-09-21T07:56:15;102779.34;;;15.98;83.25
63281;BME280;49406;51.044;3.766;2022-09-21T07:58:50;102779.96;;;16.04;82.65
63281;BME280;49406;51.044;3.766;2022-09-21T08:01:40;102776.66;;;16.18;81.91
63281;BME280;49406;51.044;3.766;2022-09-21T08:04:14;102778.66;;;16.33;81.53
63281;BME280;49406;51.044;3.766;2022-09-21T08:06:49;102778.86;;;16.47;81.58
63281;BME280;49406;51.044;3.766;2022-09-21T08:09:23;102780.74;;;16.54;80.26
63281;BME280;49406;51.044;3.766;2022-09-21T08:11:58;102779.10;;;16.63;80.18
63281;BME280;49406;51.044;3.766;2022-09-21T08:14:33;102779.40;;;16.69;79.15
63281;BME280;49406;51.044;3.766;2022-09-21T08:17:07;102777.09;;;16.82;78.98
63281;BME280;49406;51.044;3.766;2022-09-21T08:19:42;102779.27;;;17.00;77.78
63281;BME280;49406;51.044;3.766;2022-09-21T08:22:16;102780.20;;;17.18;75.23
63281;BME280;49406;51.044;3.766;2022-09-21T08:24:51;102783.70;;;17.32;73.75
63281;BME280;49406;51.044;3.766;2022-09-21T08:27:27;102784.95;;;17.48;71.75
63281;BME280;49406;51.044;3.766;2022-09-21T08:30:01;102788.77;;;17.58;71.00
63281;BME280;49406;51.044;3.766;2022-09-21T08:32:36;102791.11;;;17.63;71.42
63281;BME280;49406;51.044;3.766;2022-09-21T08:35:10;102788.55;;;17.88;71.06
63281;BME280;49406;51.044;3.766;2022-09-21T08:37:44;102792.58;;;18.02;68.28
63281;BME280;49406;51.044;3.766;2022-09-21T08:40:19;102791.41;;;18.13;69.56
63281;BME280;49406;51.044;3.766;2022-09-21T08:42:57;102791.59;;;18.36;67.10
63281;BME280;49406;51.044;3.766;2022-09-21T08:45:38;102789.23;;;18.56;67.32
63281;BME280;49406;51.044;3.766;2022-09-21T08:48:18;102785.65;;;18.74;65.98
63281;BME280;49406;51.044;3.766;2022-09-21T08:50:55;102789.27;;;18.93;63.49
63281;BME280;49406;51.044;3.766;2022-09-21T08:53:34;102789.71;;;19.10;64.27
63281;BME280;49406;51.044;3.766;2022-09-21T08:56:11;102790.67;;;19.30;63.63
63281;BME280;49406;51.044;3.766;2022-09-21T08:58:46;102792.29;;;19.39;62.90
63281;BME280;49406;51.044;3.766;2022-09-21T09:01:36;102792.13;;;19.47;61.68
63281;BME280;49406;51.044;3.766;2022-09-21T09:04:27;102792.19;;;19.60;60.96
63281;BME280;49406;51.044;3.766;2022-09-21T09:07:12;102791.85;;;19.72;58.57
63281;BME280;49406;51.044;3.766;2022-09-21T09:10:10;102794.30;;;19.62;58.45
63281;BME280;49406;51.044;3.766;2022-09-21T09:13:00;102798.92;;;19.61;58.12
63281;BME280;49406;51.044;3.766;2022-09-21T09:15:47;102795.94;;;19.72;57.12
63281;BME280;49406;51.044;3.766;2022-09-21T09:18:31;102799.12;;;19.78;56.15
63281;BME280;49406;51.044;3.766;2022-09-21T09:21:10;102795.94;;;19.80;56.33
63281;BME280;49406;51.044;3.766;2022-09-21T09:23:47;102800.56;;;19.96;56.96
63281;BME280;49406;51.044;3.766;2022-09-21T09:26:26;102796.82;;;20.12;55.75
63281;BME280;49406;51.044;3.766;2022-09-21T09:29:13;102797.70;;;20.28;55.70
63281;BME280;49406;51.044;3.766;2022-09-21T09:31:51;102795.94;;;20.38;55.49
63281;BME280;49406;51.044;3.766;2022-09-21T09:34:31;102793.26;;;20.46;55.26
63281;BME280;49406;51.044;3.766;2022-09-21T09:37:11;102794.33;;;20.50;55.06
63281;BME280;49406;51.044;3.766;2022-09-21T09:39:52;102788.25;;;20.65;54.73
63281;BME280;49406;51.044;3.766;2022-09-21T09:42:37;102789.09;;;20.77;53.81
63281;BME280;49406;51.044;3.766;2022-09-21T09:45:39;102793.35;;;20.80;51.53
63281;BME280;49406;51.044;3.766;2022-09-21T09:48:28;102791.23;;;20.77;51.33
63281;BME280;49406;51.044;3.766;2022-09-21T09:51:09;102793.53;;;20.80;51.42
63281;BME280;49406;51.044;3.766;2022-09-21T09:53:45;102792.31;;;20.73;49.97
63281;BME280;49406;51.044;3.766;2022-09-21T09:56:19;102788.43;;;20.66;50.88
63281;BME280;49406;51.044;3.766;2022-09-21T09:58:57;102789.68;;;20.60;50.50
63281;BME280;49406;51.044;3.766;2022-09-21T10:01:41;102785.63;;;20.49;51.22
63281;BME280;49406;51.044;3.766;2022-09-21T10:04:16;102787.05;;;20.45;51.65
63281;BME280;49406;51.044;3.766;2022-09-21T10:06:51;102782.80;;;20.41;51.17
63281;BME280;49406;51.044;3.766;2022-09-21T10:09:27;102781.71;;;20.44;50.68
63281;BME280;49406;51.044;3.766;2022-09-21T10:12:13;102780.83;;;20.43;50.68
63281;BME280;49406;51.044;3.766;2022-09-21T10:14:52;102777.82;;;20.35;51.00
63281;BME280;49406;51.044;3.766;2022-09-21T10:17:25;102781.71;;;20.40;51.91
63281;BME280;49406;51.044;3.766;2022-09-21T10:20:05;102781.36;;;20.47;50.96
63281;BME280;49406;51.044;3.766;2022-09-21T10:22:40;102777.47;;;20.49;49.92
63281;BME280;49406;51.044;3.766;2022-09-21T10:25:18;102781.02;;;20.43;49.59
63281;BME280;49406;51.044;3.766;2022-09-21T10:27:53;102785.09;;;20.42;50.34
63281;BME280;49406;51.044;3.766;2022-09-21T10:30:36;102785.62;;;20.51;50.78
63281;BME280;49406;51.044;3.766;2022-09-21T10:33:19;102786.63;;;20.76;49.58
63281;BME280;49406;51.044;3.766;2022-09-21T10:35:54;102787.46;;;20.89;48.43
63281;BME280;49406;51.044;3.766;2022-09-21T10:38:28;102780.84;;;20.96;47.73
63281;BME280;49406;51.044;3.766;2022-09-21T10:41:04;102781.38;;;20.96;47.65
63281;BME280;49406;51.044;3.766;2022-09-21T10:43:41;102781.92;;;20.93;48.25
63281;BME280;49406;51.044;3.766;2022-09-21T10:46:16;102778.23;;;20.80;47.03
63281;BME280;49406;51.044;3.766;2022-09-21T10:49:03;102777.17;;;20.79;47.95
63281;BME280;49406;51.044;3.766;2022-09-21T10:51:50;102775.75;;;20.82;47.49
63281;BME280;49406;51.044;3.766;2022-09-21T10:54:29;102777.15;;;20.88;47.42
63281;BME280;49406;51.044;3.766;2022-09-21T10:57:08;102781.19;;;20.98;45.39
63281;BME280;49406;51.044;3.766;2022-09-21T10:59:44;102776.00;;;21.09;45.48
63281;BME280;49406;51.044;3.766;2022-09-21T11:02:32;102775.21;;;21.24;45.00
63281;BME280;49406;51.044;3.766;2022-09-21T11:05:13;102770.05;;;21.27;45.26
63281;BME280;49406;51.044;3.766;2022-09-21T11:07:53;102770.00;;;21.38;44.76
63281;BME280;49406;51.044;3.766;2022-09-21T11:10:42;102769.29;;;21.37;45.21
63281;BME280;49406;51.044;3.766;2022-09-21T11:13:24;102768.17;;;21.43;45.25
63281;BME280;49406;51.044;3.766;2022-09-21T11:16:03;102767.62;;;21.72;45.05
63281;BME280;49406;51.044;3.766;2022-09-21T11:18:48;102767.77;;;21.98;41.91
63281;BME280;49406;51.044;3.766;2022-09-21T11:21:33;102764.92;;;21.96;42.31
63281;BME280;49406;51.044;3.766;2022-09-21T11:24:18;102763.77;;;22.08;41.93
63281;BME280;49406;51.044;3.766;2022-09-21T11:26:55;102756.77;;;22.34;41.23
63281;BME280;49406;51.044;3.766;2022-09-21T11:29:37;102753.90;;;22.34;40.96
63281;BME280;49406;51.044;3.766;2022-09-21T11:35:29;102747.27;;;21.99;40.50
63281;BME280;49406;51.044;3.766;2022-09-21T11:38:12;102741.20;;;22.22;40.81
63281;BME280;49406;51.044;3.766;2022-09-21T11:41:05;102745.53;;;22.17;39.91
63281;BME280;49406;51.044;3.766;2022-09-21T11:44:02;102742.67;;;22.18;39.18
63281;BME280;49406;51.044;3.766;2022-09-21T11:46:44;102743.87;;;22.02;39.26
63281;BME280;49406;51.044;3.766;2022-09-21T11:49:35;102739.76;;;21.60;39.26
63281;BME280;49406;51.044;3.766;2022-09-21T11:52:31;102737.73;;;21.13;39.91
63281;BME280;49406;51.044;3.766;2022-09-21T11:55:24;102737.17;;;20.84;39.80
63281;BME280;49406;51.044;3.766;2022-09-21T11:58:09;102732.15;;;20.92;40.45
63281;BME280;49406;51.044;3.766;2022-09-21T12:00:53;102731.77;;;20.98;39.56
63281;BME280;49406;51.044;3.766;2022-09-21T12:03:43;102729.35;;;21.17;39.60
63281;BME280;49406;51.044;3.766;2022-09-21T12:06:36;102730.27;;;21.67;40.16
63281;BME280;49406;51.044;3.766;2022-09-21T12:09:28;102732.91;;;21.92;40.07
63281;BME280;49406;51.044;3.766;2022-09-21T12:12:10;102728.76;;;22.19;39.83
63281;BME280;49406;51.044;3.766;2022-09-21T12:14:53;102727.05;;;22.29;39.04
63281;BME280;49406;51.044;3.766;2022-09-21T12:17:36;102728.61;;;21.97;38.97
63281;BME280;49406;51.044;3.766;2022-09-21T12:20:19;102727.25;;;21.66;39.86
63281;BME280;49406;51.044;3.766;2022-09-21T12:23:00;102726.02;;;21.42;39.63
63281;BME280;49406;51.044;3.766;2022-09-21T12:25:39;102724.71;;;21.18;39.66
63281;BME280;49406;51.044;3.766;2022-09-21T12:28:16;102719.10;;;21.03;39.41
63281;BME280;49406;51.044;3.766;2022-09-21T12:30:54;102718.17;;;20.76;39.55
63281;BME280;49406;51.044;3.766;2022-09-21T12:33:35;102714.66;;;20.68;40.66
63281;BME280;49406;51.044;3.766;2022-09-21T12:36:14;102710.23;;;20.66;40.26
63281;BME280;49406;51.044;3.766;2022-09-21T12:38:54;102711.17;;;20.52;40.66
63281;BME280;49406;51.044;3.766;2022-09-21T12:41:37;102709.41;;;20.43;40.56
63281;BME280;49406;51.044;3.766;2022-09-21T12:44:17;102705.71;;;20.20;41.15
63281;BME280;49406;51.044;3.766;2022-09-21T12:46:57;102703.27;;;19.97;42.28
63281;BME280;49406;51.044;3.766;2022-09-21T12:49:43;102701.51;;;19.84;42.62
63281;BME280;49406;51.044;3.766;2022-09-21T12:52:21;102702.04;;;19.60;43.05
63281;BME280;49406;51.044;3.766;2022-09-21T12:54:58;102701.45;;;19.32;43.19
63281;BME280;49406;51.044;3.766;2022-09-21T12:57:45;102698.23;;;19.10;43.60
63281;BME280;49406;51.044;3.766;2022-09-21T13:00:23;102693.92;;;18.93;45.28
63281;BME280;49406;51.044;3.766;2022-09-21T13:03:08;102691.77;;;18.84;45.71
63281;BME280;49406;51.044;3.766;2022-09-21T13:05:55;102688.72;;;18.74;45.63
63281;BME280;49406;51.044;3.766;2022-09-21T13:08:39;102689.42;;;18.67;46.26
63281;BME280;49406;51.044;3.766;2022-09-21T13:11:15;102681.55;;;18.59;47.18
63281;BME280;49406;51.044;3.766;2022-09-21T13:13:55;102681.44;;;18.37;47.88
63281;BME280;49406;51.044;3.766;2022-09-21T13:16:33;102681.36;;;18.23;47.74
63281;BME280;49406;51.044;3.766;2022-09-21T13:19:19;102678.48;;;18.14;48.09
63281;BME280;49406;51.044;3.766;2022-09-21T13:22:12;102678.77;;;18.06;48.47
63281;BME280;49406;51.044;3.766;2022-09-21T13:25:02;102676.67;;;18.07;48.96
63281;BME280;49406;51.044;3.766;2022-09-21T13:28:02;102673.84;;;18.07;48.81
63281;BME280;49406;51.044;3.766;2022-09-21T13:30:41;102674.55;;;18.12;48.35
63281;BME280;49406;51.044;3.766;2022-09-21T13:33:36;102668.42;;;18.19;48.35
63281;BME280;49406;51.044;3.766;2022-09-21T13:41:51;102659.50;;;18.42;47.41
63281;BME280;49406;51.044;3.766;2022-09-21T13:44:41;102657.55;;;18.44;45.80
63281;BME280;49406;51.044;3.766;2022-09-21T13:47:28;102650.67;;;18.48;47.62
63281;BME280;49406;51.044;3.766;2022-09-21T13:50:15;102651.77;;;18.53;46.95
63281;BME280;49406;51.044;3.766;2022-09-21T13:52:54;102648.52;;;18.42;46.90
63281;BME280;49406;51.044;3.766;2022-09-21T13:55:32;102642.33;;;18.43;47.31
63281;BME280;49406;51.044;3.766;2022-09-21T13:58:18;102643.91;;;18.41;46.66
63281;BME280;49406;51.044;3.766;2022-09-21T14:00:57;102639.85;;;18.45;47.00
63281;BME280;49406;51.044;3.766;2022-09-21T14:03:35;102636.16;;;18.48;47.00